Главная страница
METAR-TAF:

METAR-TAF

Аэропорты :

Кувейт, Кувейт

широта: 29-13N, долгота: 047-59E, высота над уровнем моря: 55 м

Текущие метеонаблюдения

Эта сводка был подготовлена 19 минут назад, в 19:00 UTC
Штиль
Температура 16°C
Влажность 55%
Давление 1016 hPa
Видимость: 7000 м

METAR: OKBK 281900Z 00000KT 7000 NSC 16/07 Q1016 NOSIG

Время: 22:19 (19:19 UTC)

Прогноз

Эта сводка был подготовлена 2 часа и 34 минут назад, в 16:45 UTC
Прогноз действительный с 28-го 18 UTC до 29-го 24 UTC
Ветер 3 Узел переменных направлений
Видимость: 7000 м
временами
С 28-го 21 UTC до 29-го 06 UTC
Видимость: 2000 м
дымка
изменения
С 29-го 09 UTC до 29-го 11 UTC
Ветер 8 Узел от восточно-юго-восточный с порывами до 18 Узел

TAF: OKBK 281645Z 2818/2924 VRB03KT 7000 NSC TEMPO 2821/2906 2000 BR BECMG 2909/2911 12008G18KT

Метеонаблюдения и прогнозы для более 4000 аэропортов (сводки METAR и TAF).

Имеющиеся станции представлены на карте желтыми и красными точками.

Чтобы увидеть название станции, наведите на нее мышь.

Затем щелкните, чтобы увидеть метеонаблюдения и метеопрогнозы.

Управление картой: чтобы увеличить масштаб, щелкните зеленые кнопки с черным крестиком; чтобы уменьшить масштаб, щелкните зеленую кнопку с тире; для просмотра соседних карт щелкайте зеленые стрелки.


METAR-TAF: